sensor_id;sensor_type;location;lat;lon;timestamp;pressure;altitude;pressure_sealevel;temperature;humidity
81905;BME280;71370;-33.792;151.032;2023-12-22T00:00:44;101109.23;;;22.84;44.58
81905;BME280;71370;-33.792;151.032;2023-12-22T00:01:53;101106.18;;;22.82;44.65
81905;BME280;71370;-33.792;151.032;2023-12-22T00:03:00;101104.86;;;22.80;44.83
81905;BME280;71370;-33.792;151.032;2023-12-22T00:04:07;101103.63;;;22.79;45.17
81905;BME280;71370;-33.792;151.032;2023-12-22T00:05:13;101100.96;;;22.78;45.14
81905;BME280;71370;-33.792;151.032;2023-12-22T00:06:20;101099.38;;;22.78;45.28
81905;BME280;71370;-33.792;151.032;2023-12-22T00:07:27;101100.27;;;22.79;45.24
81905;BME280;71370;-33.792;151.032;2023-12-22T00:08:34;101099.01;;;22.82;45.24
81905;BME280;71370;-33.792;151.032;2023-12-22T00:09:41;101094.57;;;22.87;45.26
81905;BME280;71370;-33.792;151.032;2023-12-22T00:10:48;101091.56;;;22.92;45.47
81905;BME280;71370;-33.792;151.032;2023-12-22T00:11:55;101090.64;;;22.95;45.33
81905;BME280;71370;-33.792;151.032;2023-12-22T00:13:02;101093.02;;;22.98;44.79
81905;BME280;71370;-33.792;151.032;2023-12-22T00:14:08;101090.39;;;22.97;44.47
81905;BME280;71370;-33.792;151.032;2023-12-22T00:15:15;101085.95;;;22.99;44.54
81905;BME280;71370;-33.792;151.032;2023-12-22T00:16:22;101082.19;;;23.05;44.63
81905;BME280;71370;-33.792;151.032;2023-12-22T00:17:29;101081.38;;;23.10;44.80
81905;BME280;71370;-33.792;151.032;2023-12-22T00:18:36;101079.77;;;23.12;44.36
81905;BME280;71370;-33.792;151.032;2023-12-22T00:19:43;101077.60;;;23.13;44.44
81905;BME280;71370;-33.792;151.032;2023-12-22T00:20:50;101071.21;;;23.12;44.59
81905;BME280;71370;-33.792;151.032;2023-12-22T00:21:57;101075.73;;;23.11;44.60
81905;BME280;71370;-33.792;151.032;2023-12-22T00:23:04;101076.27;;;23.11;44.76
81905;BME280;71370;-33.792;151.032;2023-12-22T00:24:11;101077.15;;;23.12;44.40
81905;BME280;71370;-33.792;151.032;2023-12-22T00:25:18;101079.29;;;23.11;44.66
81905;BME280;71370;-33.792;151.032;2023-12-22T00:26:25;101074.87;;;23.10;44.40
81905;BME280;71370;-33.792;151.032;2023-12-22T00:27:31;101075.66;;;23.10;44.88
81905;BME280;71370;-33.792;151.032;2023-12-22T00:28:38;101077.39;;;23.11;45.17
81905;BME280;71370;-33.792;151.032;2023-12-22T00:29:45;101074.70;;;23.13;45.02
81905;BME280;71370;-33.792;151.032;2023-12-22T00:30:52;101072.33;;;23.17;44.70
81905;BME280;71370;-33.792;151.032;2023-12-22T00:31:59;101072.32;;;23.26;44.52
81905;BME280;71370;-33.792;151.032;2023-12-22T00:33:06;101074.41;;;23.39;44.21
81905;BME280;71370;-33.792;151.032;2023-12-22T00:34:13;101067.78;;;23.50;43.83
81905;BME280;71370;-33.792;151.032;2023-12-22T00:35:19;101068.73;;;23.61;43.21
81905;BME280;71370;-33.792;151.032;2023-12-22T00:36:26;101068.13;;;23.70;42.65
81905;BME280;71370;-33.792;151.032;2023-12-22T00:37:33;101064.58;;;23.79;42.10
81905;BME280;71370;-33.792;151.032;2023-12-22T00:38:40;101066.48;;;23.86;42.17
81905;BME280;71370;-33.792;151.032;2023-12-22T00:39:47;101062.77;;;23.93;42.14
81905;BME280;71370;-33.792;151.032;2023-12-22T00:40:54;101056.46;;;24.01;41.89
81905;BME280;71370;-33.792;151.032;2023-12-22T00:42:01;101056.61;;;24.05;41.00
81905;BME280;71370;-33.792;151.032;2023-12-22T00:43:10;101059.27;;;24.02;41.46
81905;BME280;71370;-33.792;151.032;2023-12-22T00:44:17;101052.49;;;23.99;41.45
81905;BME280;71370;-33.792;151.032;2023-12-22T00:45:24;101051.82;;;23.99;41.58
81905;BME280;71370;-33.792;151.032;2023-12-22T00:46:31;101051.29;;;23.98;41.76
81905;BME280;71370;-33.792;151.032;2023-12-22T00:47:38;101047.92;;;23.98;41.75
81905;BME280;71370;-33.792;151.032;2023-12-22T00:48:45;101045.73;;;23.96;42.11
81905;BME280;71370;-33.792;151.032;2023-12-22T00:49:52;101041.64;;;23.95;42.26
81905;BME280;71370;-33.792;151.032;2023-12-22T00:50:59;101045.70;;;23.96;42.77
81905;BME280;71370;-33.792;151.032;2023-12-22T00:52:06;101042.36;;;23.98;42.44
81905;BME280;71370;-33.792;151.032;2023-12-22T00:53:13;101039.92;;;23.99;42.07
81905;BME280;71370;-33.792;151.032;2023-12-22T00:54:20;101041.17;;;24.00;41.87
81905;BME280;71370;-33.792;151.032;2023-12-22T00:55:27;101036.70;;;23.99;42.12
81905;BME280;71370;-33.792;151.032;2023-12-22T00:56:34;101034.62;;;23.98;42.57
81905;BME280;71370;-33.792;151.032;2023-12-22T00:57:40;101034.42;;;23.96;42.34
81905;BME280;71370;-33.792;151.032;2023-12-22T00:58:47;101037.41;;;23.94;42.56
81905;BME280;71370;-33.792;151.032;2023-12-22T00:59:54;101034.00;;;23.94;42.91
81905;BME280;71370;-33.792;151.032;2023-12-22T01:01:01;101027.45;;;23.95;42.95
81905;BME280;71370;-33.792;151.032;2023-12-22T01:02:08;101025.08;;;23.98;42.87
81905;BME280;71370;-33.792;151.032;2023-12-22T01:03:15;101024.23;;;24.06;42.56
81905;BME280;71370;-33.792;151.032;2023-12-22T01:04:22;101018.64;;;24.17;42.26
81905;BME280;71370;-33.792;151.032;2023-12-22T01:05:28;101019.27;;;24.29;42.14
81905;BME280;71370;-33.792;151.032;2023-12-22T01:06:39;101011.09;;;24.41;41.58
81905;BME280;71370;-33.792;151.032;2023-12-22T01:07:46;101009.41;;;24.56;42.22
81905;BME280;71370;-33.792;151.032;2023-12-22T01:08:52;101006.58;;;24.68;42.09
81905;BME280;71370;-33.792;151.032;2023-12-22T01:09:59;101010.90;;;24.76;42.17
81905;BME280;71370;-33.792;151.032;2023-12-22T01:11:10;101006.77;;;24.79;41.14
81905;BME280;71370;-33.792;151.032;2023-12-22T01:12:16;101010.48;;;24.77;41.41
81905;BME280;71370;-33.792;151.032;2023-12-22T01:13:23;101008.58;;;24.73;41.00
81905;BME280;71370;-33.792;151.032;2023-12-22T01:14:31;101007.55;;;24.67;41.27
81905;BME280;71370;-33.792;151.032;2023-12-22T01:15:38;101004.31;;;24.60;41.20
81905;BME280;71370;-33.792;151.032;2023-12-22T01:16:44;101002.60;;;24.53;41.55
81905;BME280;71370;-33.792;151.032;2023-12-22T01:17:51;101003.24;;;24.48;41.82
81905;BME280;71370;-33.792;151.032;2023-12-22T01:18:58;101003.88;;;24.44;41.89
81905;BME280;71370;-33.792;151.032;2023-12-22T01:20:05;101001.16;;;24.39;42.16
81905;BME280;71370;-33.792;151.032;2023-12-22T01:21:12;100999.17;;;24.37;42.71
81905;BME280;71370;-33.792;151.032;2023-12-22T01:22:19;100995.45;;;24.36;43.23
81905;BME280;71370;-33.792;151.032;2023-12-22T01:23:26;101000.46;;;24.36;42.81
81905;BME280;71370;-33.792;151.032;2023-12-22T01:24:33;100996.11;;;24.39;42.21
81905;BME280;71370;-33.792;151.032;2023-12-22T01:25:45;100993.67;;;24.49;42.26
81905;BME280;71370;-33.792;151.032;2023-12-22T01:26:52;100993.78;;;24.53;41.96
81905;BME280;71370;-33.792;151.032;2023-12-22T01:27:59;100993.92;;;24.54;41.58
81905;BME280;71370;-33.792;151.032;2023-12-22T01:29:06;100988.95;;;24.53;41.24
81905;BME280;71370;-33.792;151.032;2023-12-22T01:30:13;100982.27;;;24.51;41.20
81905;BME280;71370;-33.792;151.032;2023-12-22T01:31:19;100984.55;;;24.54;41.25
81905;BME280;71370;-33.792;151.032;2023-12-22T01:32:26;100982.72;;;24.65;41.10
81905;BME280;71370;-33.792;151.032;2023-12-22T01:33:39;100981.85;;;24.78;41.27
81905;BME280;71370;-33.792;151.032;2023-12-22T01:34:45;100982.67;;;24.92;40.88
81905;BME280;71370;-33.792;151.032;2023-12-22T01:35:53;100983.60;;;25.04;40.37
81905;BME280;71370;-33.792;151.032;2023-12-22T01:37:00;100984.59;;;25.16;40.75
81905;BME280;71370;-33.792;151.032;2023-12-22T01:38:06;100982.97;;;25.29;40.55
81905;BME280;71370;-33.792;151.032;2023-12-22T01:39:13;100982.71;;;25.40;40.65
81905;BME280;71370;-33.792;151.032;2023-12-22T01:40:20;100978.28;;;25.47;40.17
81905;BME280;71370;-33.792;151.032;2023-12-22T01:41:27;100978.11;;;25.49;39.85
81905;BME280;71370;-33.792;151.032;2023-12-22T01:42:34;100976.14;;;25.49;39.47
81905;BME280;71370;-33.792;151.032;2023-12-22T01:43:41;100971.52;;;25.45;39.68
81905;BME280;71370;-33.792;151.032;2023-12-22T01:44:48;100971.04;;;25.47;39.91
81905;BME280;71370;-33.792;151.032;2023-12-22T01:45:59;100966.19;;;25.52;40.23
81905;BME280;71370;-33.792;151.032;2023-12-22T01:47:07;100965.15;;;25.51;40.47
81905;BME280;71370;-33.792;151.032;2023-12-22T01:48:14;100962.71;;;25.50;40.69
81905;BME280;71370;-33.792;151.032;2023-12-22T01:49:22;100962.52;;;25.50;39.84
81905;BME280;71370;-33.792;151.032;2023-12-22T01:50:29;100957.70;;;25.48;39.93
81905;BME280;71370;-33.792;151.032;2023-12-22T01:51:37;100959.69;;;25.45;40.20
81905;BME280;71370;-33.792;151.032;2023-12-22T01:52:46;100959.65;;;25.40;40.15
81905;BME280;71370;-33.792;151.032;2023-12-22T01:53:53;100956.75;;;25.40;40.03
81905;BME280;71370;-33.792;151.032;2023-12-22T01:55:00;100959.41;;;25.41;40.23
81905;BME280;71370;-33.792;151.032;2023-12-22T01:56:08;100951.52;;;25.40;40.19
81905;BME280;71370;-33.792;151.032;2023-12-22T01:57:16;100948.27;;;25.41;40.38
81905;BME280;71370;-33.792;151.032;2023-12-22T01:58:24;100948.14;;;25.45;39.94
81905;BME280;71370;-33.792;151.032;2023-12-22T01:59:33;100944.50;;;25.46;39.72
81905;BME280;71370;-33.792;151.032;2023-12-22T02:00:40;100947.41;;;25.42;40.14
81905;BME280;71370;-33.792;151.032;2023-12-22T02:01:47;100940.66;;;25.46;40.03
81905;BME280;71370;-33.792;151.032;2023-12-22T02:02:54;100932.63;;;25.55;39.70
81905;BME280;71370;-33.792;151.032;2023-12-22T02:04:02;100932.95;;;25.58;39.88
81905;BME280;71370;-33.792;151.032;2023-12-22T02:05:10;100929.95;;;25.62;40.21
81905;BME280;71370;-33.792;151.032;2023-12-22T02:06:20;100934.37;;;25.66;40.40
81905;BME280;71370;-33.792;151.032;2023-12-22T02:07:28;100930.64;;;25.63;39.62
81905;BME280;71370;-33.792;151.032;2023-12-22T02:08:35;100925.31;;;25.57;39.35
81905;BME280;71370;-33.792;151.032;2023-12-22T02:09:43;100926.52;;;25.55;39.60
81905;BME280;71370;-33.792;151.032;2023-12-22T02:10:50;100928.49;;;25.65;39.80
81905;BME280;71370;-33.792;151.032;2023-12-22T02:11:56;100920.02;;;25.75;39.18
81905;BME280;71370;-33.792;151.032;2023-12-22T02:13:04;100918.33;;;25.76;39.48
81905;BME280;71370;-33.792;151.032;2023-12-22T02:14:11;100919.45;;;25.73;39.18
81905;BME280;71370;-33.792;151.032;2023-12-22T02:15:19;100921.60;;;25.71;39.18
81905;BME280;71370;-33.792;151.032;2023-12-22T02:17:24;100917.95;;;25.76;39.09
81905;BME280;71370;-33.792;151.032;2023-12-22T02:18:35;100913.37;;;25.94;38.92
81905;BME280;71370;-33.792;151.032;2023-12-22T02:19:46;100910.20;;;26.08;38.67
81905;BME280;71370;-33.792;151.032;2023-12-22T02:20:53;100909.90;;;26.09;37.92
81905;BME280;71370;-33.792;151.032;2023-12-22T02:22:07;100905.09;;;26.06;37.84
81905;BME280;71370;-33.792;151.032;2023-12-22T02:23:14;100905.16;;;26.03;37.97
81905;BME280;71370;-33.792;151.032;2023-12-22T02:24:21;100906.27;;;26.05;37.95
81905;BME280;71370;-33.792;151.032;2023-12-22T02:25:27;100904.59;;;26.08;37.65
81905;BME280;71370;-33.792;151.032;2023-12-22T02:26:42;100899.80;;;26.12;37.90
81905;BME280;71370;-33.792;151.032;2023-12-22T02:27:53;100898.64;;;26.15;38.01
81905;BME280;71370;-33.792;151.032;2023-12-22T02:29:04;100897.12;;;26.19;37.53
81905;BME280;71370;-33.792;151.032;2023-12-22T02:31:48;100891.02;;;26.30;38.17
81905;BME280;71370;-33.792;151.032;2023-12-22T02:33:01;100888.91;;;26.34;37.09
81905;BME280;71370;-33.792;151.032;2023-12-22T02:34:13;100887.52;;;26.38;37.14
81905;BME280;71370;-33.792;151.032;2023-12-22T02:35:21;100889.67;;;26.45;37.20
81905;BME280;71370;-33.792;151.032;2023-12-22T02:36:31;100889.02;;;26.53;37.13
81905;BME280;71370;-33.792;151.032;2023-12-22T02:37:40;100887.75;;;26.63;37.35
81905;BME280;71370;-33.792;151.032;2023-12-22T02:38:48;100889.75;;;26.72;36.83
81905;BME280;71370;-33.792;151.032;2023-12-22T02:39:57;100891.70;;;26.79;36.28
81905;BME280;71370;-33.792;151.032;2023-12-22T02:41:05;100890.49;;;26.81;35.42
81905;BME280;71370;-33.792;151.032;2023-12-22T02:42:12;100887.61;;;26.81;36.22
81905;BME280;71370;-33.792;151.032;2023-12-22T02:43:20;100888.45;;;26.86;36.34
81905;BME280;71370;-33.792;151.032;2023-12-22T02:44:27;100884.33;;;26.90;36.00
81905;BME280;71370;-33.792;151.032;2023-12-22T02:45:34;100883.21;;;26.95;36.10
81905;BME280;71370;-33.792;151.032;2023-12-22T02:46:41;100879.81;;;27.02;36.59
81905;BME280;71370;-33.792;151.032;2023-12-22T02:47:49;100879.73;;;27.09;36.62
81905;BME280;71370;-33.792;151.032;2023-12-22T02:48:56;100884.35;;;27.17;36.23
81905;BME280;71370;-33.792;151.032;2023-12-22T02:50:03;100883.79;;;27.24;35.62
81905;BME280;71370;-33.792;151.032;2023-12-22T02:51:10;100882.40;;;27.30;34.86
81905;BME280;71370;-33.792;151.032;2023-12-22T02:52:17;100881.48;;;27.33;34.59
81905;BME280;71370;-33.792;151.032;2023-12-22T02:53:24;100879.98;;;27.33;33.83
81905;BME280;71370;-33.792;151.032;2023-12-22T02:54:31;100878.23;;;27.31;34.60
81905;BME280;71370;-33.792;151.032;2023-12-22T02:55:39;100874.55;;;27.29;35.62
81905;BME280;71370;-33.792;151.032;2023-12-22T02:56:47;100868.29;;;27.31;34.59
81905;BME280;71370;-33.792;151.032;2023-12-22T02:57:54;100868.39;;;27.32;34.79
81905;BME280;71370;-33.792;151.032;2023-12-22T02:59:00;100878.29;;;27.34;35.30
81905;BME280;71370;-33.792;151.032;2023-12-22T03:00:08;100880.94;;;27.40;34.92
81905;BME280;71370;-33.792;151.032;2023-12-22T03:01:15;100875.09;;;27.43;33.87
81905;BME280;71370;-33.792;151.032;2023-12-22T03:02:22;100868.44;;;27.44;33.95
81905;BME280;71370;-33.792;151.032;2023-12-22T03:03:28;100872.00;;;27.47;33.73
81905;BME280;71370;-33.792;151.032;2023-12-22T03:04:35;100870.66;;;27.50;33.68
81905;BME280;71370;-33.792;151.032;2023-12-22T03:05:42;100874.39;;;27.55;33.94
81905;BME280;71370;-33.792;151.032;2023-12-22T03:06:49;100873.25;;;27.58;33.00
81905;BME280;71370;-33.792;151.032;2023-12-22T03:07:56;100876.80;;;27.61;33.60
81905;BME280;71370;-33.792;151.032;2023-12-22T03:09:03;100878.46;;;27.67;33.29
81905;BME280;71370;-33.792;151.032;2023-12-22T03:10:09;100878.92;;;27.72;32.41
81905;BME280;71370;-33.792;151.032;2023-12-22T03:11:16;100876.52;;;27.66;32.50
81905;BME280;71370;-33.792;151.032;2023-12-22T03:12:23;100872.48;;;27.54;32.40
81905;BME280;71370;-33.792;151.032;2023-12-22T03:13:30;100869.13;;;27.49;32.29
81905;BME280;71370;-33.792;151.032;2023-12-22T03:14:37;100869.41;;;27.48;32.84
81905;BME280;71370;-33.792;151.032;2023-12-22T03:15:44;100866.33;;;27.50;33.17
81905;BME280;71370;-33.792;151.032;2023-12-22T03:16:51;100867.65;;;27.56;33.53
81905;BME280;71370;-33.792;151.032;2023-12-22T03:17:58;100868.61;;;27.62;33.05
81905;BME280;71370;-33.792;151.032;2023-12-22T03:19:05;100867.02;;;27.63;32.24
81905;BME280;71370;-33.792;151.032;2023-12-22T03:20:11;100865.04;;;27.64;32.28
81905;BME280;71370;-33.792;151.032;2023-12-22T03:21:19;100866.98;;;27.62;32.10
81905;BME280;71370;-33.792;151.032;2023-12-22T03:22:26;100860.55;;;27.61;32.67
81905;BME280;71370;-33.792;151.032;2023-12-22T03:23:33;100865.10;;;27.61;32.34
81905;BME280;71370;-33.792;151.032;2023-12-22T03:24:40;100861.38;;;27.60;32.27
81905;BME280;71370;-33.792;151.032;2023-12-22T03:25:46;100854.46;;;27.61;32.27
81905;BME280;71370;-33.792;151.032;2023-12-22T03:26:53;100853.08;;;27.64;32.80
81905;BME280;71370;-33.792;151.032;2023-12-22T03:28:01;100854.48;;;27.71;32.95
81905;BME280;71370;-33.792;151.032;2023-12-22T03:29:07;100853.77;;;27.77;33.33
81905;BME280;71370;-33.792;151.032;2023-12-22T03:30:14;100859.41;;;27.85;33.18
81905;BME280;71370;-33.792;151.032;2023-12-22T03:31:21;100862.24;;;27.91;32.83
81905;BME280;71370;-33.792;151.032;2023-12-22T03:32:28;100859.21;;;27.94;31.85
81905;BME280;71370;-33.792;151.032;2023-12-22T03:33:35;100854.07;;;27.91;31.69
81905;BME280;71370;-33.792;151.032;2023-12-22T03:34:42;100858.39;;;27.87;31.94
81905;BME280;71370;-33.792;151.032;2023-12-22T03:35:49;100858.36;;;27.83;32.36
81905;BME280;71370;-33.792;151.032;2023-12-22T03:36:56;100862.04;;;27.80;32.85
81905;BME280;71370;-33.792;151.032;2023-12-22T03:38:03;100864.37;;;27.78;32.39
81905;BME280;71370;-33.792;151.032;2023-12-22T03:39:10;100861.19;;;27.71;32.44
81905;BME280;71370;-33.792;151.032;2023-12-22T03:40:17;100860.13;;;27.64;32.83
81905;BME280;71370;-33.792;151.032;2023-12-22T03:41:24;100861.59;;;27.62;33.08
81905;BME280;71370;-33.792;151.032;2023-12-22T03:42:30;100859.27;;;27.61;33.45
81905;BME280;71370;-33.792;151.032;2023-12-22T03:43:37;100859.88;;;27.63;33.28
81905;BME280;71370;-33.792;151.032;2023-12-22T03:44:44;100852.37;;;27.64;33.63
81905;BME280;71370;-33.792;151.032;2023-12-22T03:45:51;100850.58;;;27.68;33.88
81905;BME280;71370;-33.792;151.032;2023-12-22T03:46:58;100848.80;;;27.74;33.53
81905;BME280;71370;-33.792;151.032;2023-12-22T03:48:05;100847.59;;;27.78;33.05
81905;BME280;71370;-33.792;151.032;2023-12-22T03:49:12;100851.42;;;27.80;33.30
81905;BME280;71370;-33.792;151.032;2023-12-22T03:50:19;100854.79;;;27.82;33.38
81905;BME280;71370;-33.792;151.032;2023-12-22T03:51:26;100851.94;;;27.86;32.79
81905;BME280;71370;-33.792;151.032;2023-12-22T03:52:33;100845.67;;;27.88;32.52
81905;BME280;71370;-33.792;151.032;2023-12-22T03:53:40;100852.20;;;27.87;33.20
81905;BME280;71370;-33.792;151.032;2023-12-22T03:54:47;100852.55;;;27.87;32.95
81905;BME280;71370;-33.792;151.032;2023-12-22T03:55:55;100855.72;;;27.91;32.88
81905;BME280;71370;-33.792;151.032;2023-12-22T03:57:02;100855.05;;;27.92;32.68
81905;BME280;71370;-33.792;151.032;2023-12-22T03:58:08;100853.77;;;27.93;33.03
81905;BME280;71370;-33.792;151.032;2023-12-22T03:59:16;100858.24;;;27.95;33.24
81905;BME280;71370;-33.792;151.032;2023-12-22T04:00:24;100852.29;;;27.99;33.25
81905;BME280;71370;-33.792;151.032;2023-12-22T04:01:31;100853.76;;;28.04;32.45
81905;BME280;71370;-33.792;151.032;2023-12-22T04:02:39;100844.66;;;28.02;32.07
81905;BME280;71370;-33.792;151.032;2023-12-22T04:03:46;100849.81;;;27.99;32.39
81905;BME280;71370;-33.792;151.032;2023-12-22T04:04:53;100850.00;;;27.96;32.23
81905;BME280;71370;-33.792;151.032;2023-12-22T04:06:03;100850.80;;;27.96;32.54
81905;BME280;71370;-33.792;151.032;2023-12-22T04:07:10;100851.68;;;27.96;32.72
81905;BME280;71370;-33.792;151.032;2023-12-22T04:08:17;100850.57;;;27.99;32.37
81905;BME280;71370;-33.792;151.032;2023-12-22T04:09:26;100852.52;;;28.01;32.28
81905;BME280;71370;-33.792;151.032;2023-12-22T04:10:33;100855.82;;;28.01;31.88
81905;BME280;71370;-33.792;151.032;2023-12-22T04:11:39;100848.47;;;27.98;31.81
81905;BME280;71370;-33.792;151.032;2023-12-22T04:12:47;100847.88;;;27.94;31.77
81905;BME280;71370;-33.792;151.032;2023-12-22T04:13:54;100849.28;;;27.90;32.08
81905;BME280;71370;-33.792;151.032;2023-12-22T04:15:01;100847.66;;;27.85;32.18
81905;BME280;71370;-33.792;151.032;2023-12-22T04:16:08;100847.73;;;27.80;32.26
81905;BME280;71370;-33.792;151.032;2023-12-22T04:17:15;100853.65;;;27.76;32.14
81905;BME280;71370;-33.792;151.032;2023-12-22T04:18:21;100851.41;;;27.75;32.26
81905;BME280;71370;-33.792;151.032;2023-12-22T04:19:28;100844.08;;;27.77;32.24
81905;BME280;71370;-33.792;151.032;2023-12-22T04:20:35;100840.46;;;27.79;32.97
81905;BME280;71370;-33.792;151.032;2023-12-22T04:21:42;100836.02;;;27.82;32.82
81905;BME280;71370;-33.792;151.032;2023-12-22T04:22:49;100837.77;;;27.87;32.96
81905;BME280;71370;-33.792;151.032;2023-12-22T04:23:56;100837.41;;;27.93;33.10
81905;BME280;71370;-33.792;151.032;2023-12-22T04:25:03;100839.75;;;28.00;32.27
81905;BME280;71370;-33.792;151.032;2023-12-22T04:26:10;100840.07;;;28.01;31.74
81905;BME280;71370;-33.792;151.032;2023-12-22T04:27:17;100842.48;;;27.96;32.13
81905;BME280;71370;-33.792;151.032;2023-12-22T04:28:24;100840.55;;;27.88;32.10
81905;BME280;71370;-33.792;151.032;2023-12-22T04:29:30;100839.08;;;27.80;32.39
81905;BME280;71370;-33.792;151.032;2023-12-22T04:30:38;100837.66;;;27.71;32.18
81905;BME280;71370;-33.792;151.032;2023-12-22T04:31:45;100834.83;;;27.60;31.92
81905;BME280;71370;-33.792;151.032;2023-12-22T04:32:52;100835.14;;;27.47;32.42
81905;BME280;71370;-33.792;151.032;2023-12-22T04:33:58;100831.13;;;27.34;32.85
81905;BME280;71370;-33.792;151.032;2023-12-22T04:35:06;100837.89;;;27.27;33.22
81905;BME280;71370;-33.792;151.032;2023-12-22T04:36:13;100833.95;;;27.22;33.19
81905;BME280;71370;-33.792;151.032;2023-12-22T04:37:20;100836.05;;;27.16;33.14
81905;BME280;71370;-33.792;151.032;2023-12-22T04:38:27;100833.31;;;27.10;33.42
81905;BME280;71370;-33.792;151.032;2023-12-22T04:39:33;100835.68;;;27.07;33.43
81905;BME280;71370;-33.792;151.032;2023-12-22T04:40:40;100834.89;;;27.08;33.26
81905;BME280;71370;-33.792;151.032;2023-12-22T04:41:47;100840.58;;;27.12;33.63
81905;BME280;71370;-33.792;151.032;2023-12-22T04:42:54;100836.83;;;27.15;33.64
81905;BME280;71370;-33.792;151.032;2023-12-22T04:44:01;100832.30;;;27.20;33.54
81905;BME280;71370;-33.792;151.032;2023-12-22T04:45:09;100838.20;;;27.28;33.79
81905;BME280;71370;-33.792;151.032;2023-12-22T04:46:16;100838.45;;;27.33;33.65
81905;BME280;71370;-33.792;151.032;2023-12-22T04:47:24;100837.16;;;27.38;33.96
81905;BME280;71370;-33.792;151.032;2023-12-22T04:48:30;100832.59;;;27.43;33.87
81905;BME280;71370;-33.792;151.032;2023-12-22T04:49:39;100828.17;;;27.49;34.00
81905;BME280;71370;-33.792;151.032;2023-12-22T04:50:46;100834.30;;;27.55;34.16
81905;BME280;71370;-33.792;151.032;2023-12-22T04:51:52;100833.39;;;27.62;33.55
81905;BME280;71370;-33.792;151.032;2023-12-22T04:52:59;100833.99;;;27.63;33.07
81905;BME280;71370;-33.792;151.032;2023-12-22T04:54:06;100836.58;;;27.62;33.22
81905;BME280;71370;-33.792;151.032;2023-12-22T04:55:13;100837.92;;;27.62;33.34
81905;BME280;71370;-33.792;151.032;2023-12-22T04:56:21;100836.97;;;27.62;33.36
81905;BME280;71370;-33.792;151.032;2023-12-22T04:57:28;100834.08;;;27.62;33.65
81905;BME280;71370;-33.792;151.032;2023-12-22T04:58:35;100835.27;;;27.65;33.91
81905;BME280;71370;-33.792;151.032;2023-12-22T04:59:42;100832.73;;;27.72;34.00
81905;BME280;71370;-33.792;151.032;2023-12-22T05:00:49;100829.28;;;27.79;33.91
81905;BME280;71370;-33.792;151.032;2023-12-22T05:01:56;100825.63;;;27.81;34.10
81905;BME280;71370;-33.792;151.032;2023-12-22T05:03:03;100824.40;;;27.85;34.07
81905;BME280;71370;-33.792;151.032;2023-12-22T05:04:10;100829.11;;;27.89;33.57
81905;BME280;71370;-33.792;151.032;2023-12-22T05:05:17;100827.79;;;27.92;33.16
81905;BME280;71370;-33.792;151.032;2023-12-22T05:06:24;100826.48;;;27.92;32.73
81905;BME280;71370;-33.792;151.032;2023-12-22T05:07:31;100825.30;;;27.89;33.21
81905;BME280;71370;-33.792;151.032;2023-12-22T05:08:38;100824.87;;;27.90;33.50
81905;BME280;71370;-33.792;151.032;2023-12-22T05:09:45;100825.11;;;27.89;33.44
81905;BME280;71370;-33.792;151.032;2023-12-22T05:10:52;100832.28;;;27.86;33.34
81905;BME280;71370;-33.792;151.032;2023-12-22T05:11:59;100828.14;;;27.79;33.20
81905;BME280;71370;-33.792;151.032;2023-12-22T05:13:06;100826.23;;;27.76;33.52
81905;BME280;71370;-33.792;151.032;2023-12-22T05:14:13;100829.13;;;27.76;33.89
81905;BME280;71370;-33.792;151.032;2023-12-22T05:15:20;100833.94;;;27.79;34.17
81905;BME280;71370;-33.792;151.032;2023-12-22T05:16:27;100821.89;;;27.80;33.99
81905;BME280;71370;-33.792;151.032;2023-12-22T05:17:37;100825.36;;;27.80;34.13
81905;BME280;71370;-33.792;151.032;2023-12-22T05:18:44;100825.40;;;27.79;34.11
81905;BME280;71370;-33.792;151.032;2023-12-22T05:19:50;100817.91;;;27.81;34.01
81905;BME280;71370;-33.792;151.032;2023-12-22T05:20:57;100819.73;;;27.78;34.25
81905;BME280;71370;-33.792;151.032;2023-12-22T05:22:04;100819.85;;;27.77;34.55
81905;BME280;71370;-33.792;151.032;2023-12-22T05:23:11;100819.92;;;27.76;34.74
81905;BME280;71370;-33.792;151.032;2023-12-22T05:24:18;100816.93;;;27.72;35.01
81905;BME280;71370;-33.792;151.032;2023-12-22T05:25:25;100817.69;;;27.70;35.07
81905;BME280;71370;-33.792;151.032;2023-12-22T05:26:32;100821.94;;;27.65;35.23
81905;BME280;71370;-33.792;151.032;2023-12-22T05:27:39;100822.33;;;27.60;35.46
81905;BME280;71370;-33.792;151.032;2023-12-22T05:28:48;100828.86;;;27.60;36.03
81905;BME280;71370;-33.792;151.032;2023-12-22T05:29:57;100826.17;;;27.62;35.43
81905;BME280;71370;-33.792;151.032;2023-12-22T05:31:07;100821.67;;;27.62;35.40
81905;BME280;71370;-33.792;151.032;2023-12-22T05:32:14;100816.38;;;27.60;35.50
81905;BME280;71370;-33.792;151.032;2023-12-22T05:33:21;100814.73;;;27.58;35.92
81905;BME280;71370;-33.792;151.032;2023-12-22T05:34:28;100817.08;;;27.56;36.10
81905;BME280;71370;-33.792;151.032;2023-12-22T05:35:35;100818.00;;;27.53;36.29
81905;BME280;71370;-33.792;151.032;2023-12-22T05:36:42;100815.71;;;27.53;36.31
81905;BME280;71370;-33.792;151.032;2023-12-22T05:37:48;100812.77;;;27.53;36.07
81905;BME280;71370;-33.792;151.032;2023-12-22T05:38:55;100817.43;;;27.54;36.24
81905;BME280;71370;-33.792;151.032;2023-12-22T05:40:02;100814.04;;;27.57;36.53
81905;BME280;71370;-33.792;151.032;2023-12-22T05:41:11;100808.81;;;27.64;36.55